x

West Sea Otter (46204) Wave Buoy

11:00am - Thu 5th May 2016 All times are PDT. -7 hours from GMT.

  • Sig Wave height 4.9ft
  • Peak Period 5s
  • Wind
    18mph, 20mph gusts
  • Sea Temp 51°f
  • 空気 Temp 50°f
  • Sea Pressure 1022.1mb
  • West Sea Otter
  • West Sea Otter

More Historic Weather Station data

Upgrade to MSW Pro to gain access to the past 30 days of data for over 8000 Wavebouys and Weather Stations around the globe.

Join Pro

Comparision Forecast

View Surf forecast
   
Thu 05/05 11:00am 5ft 5s 18 20 mph 1022.1mb 51f 50f
10:00am 5ft 6s 18 20 mph 1021.7mb 51f 50f
9:00am 5ft 6s 18 20 mph 1021.9mb 51f 50f
8:00am 5ft 6s 18 22 mph 1021.8mb 51f 50f
7:00am 5ft 6s 16 18 mph 1021.8mb 51f 50f
6:00am 5ft 6s 18 22 mph 1021.7mb 51f 50f
5:00am 5ft 6s 20 25 mph 1021.8mb 51f 50f
4:00am 5.5ft 5s 20 25 mph 1021.6mb 51f 50f
2:00am 5ft 9s 22 27 mph 1021.8mb 51f 50f
1:00am 5.5ft 5s 22 27 mph 1021.7mb 51f 50f
12:00am 5ft 5s 22 25 mph 1021.7mb 51f 49f
Wed 05/04 11:00pm 5ft 5s 22
mph
1021.6mb 51f 49f
10:00pm 5ft 9s 20 25 mph 1021.7mb 51f 49f
9:00pm 5ft 10s 20 25 mph 1021.6mb 51f 49f
8:00pm 4.5ft 10s 22 27 mph 1021.7mb 51f 50f
7:00pm 4.5ft 9s 20 25 mph 1021.9mb 51f 50f
6:00pm 4.5ft 9s 20 25 mph 1022.4mb 52f 50f
5:00pm 4.5ft 10s 18 22 mph 1022.5mb 52f 50f
4:00pm 4.5ft 10s 18 20 mph 1022.7mb 52f 49f
3:00pm 4ft 10s 16 18 mph 1023.1mb 52f 49f
2:00pm 4ft 10s 13 16 mph 1023.1mb 51f 49f
1:00pm 4ft 9s 11 13 mph 1023.4mb 51f 49f
12:00pm 4ft 9s 11 13 mph 1023.6mb 51f 49f
11:00am 4ft 10s 11 13 mph 1023.5mb 51f 49f
10:00am 4.5ft 9s 11 13 mph 1023.6mb 50f 49f
9:00am 4ft 8s 11 13 mph 1023.6mb 51f 49f
8:00am 4ft 10s 11 13 mph 1023.8mb 51f 49f
7:00am 4.5ft 10s 9 11 mph 1023.9mb 51f 49f
6:00am 4ft 10s 9 11 mph 1023.9mb 50f 48f
5:00am 4.5ft 11s 11 16 mph 1023.7mb 50f 48f
4:00am 4.5ft 11s 9 11 mph 1023.8mb 51f 49f
3:00am 4.5ft 10s 9 11 mph 1023.5mb 51f 49f
2:00am 4ft 11s 11 13 mph 1023.3mb 50f 49f
1:00am 4.5ft 10s 9 11 mph 1023.5mb 50f 49f
12:00am 4.5ft 10s 11 13 mph 1023mb 50f 49f
Tue 05/03 11:00pm 4.5ft 9s 13 16 mph 1022.9mb 50f 49f
10:00pm 4.5ft 10s 11 16 mph 1022.6mb 51f 49f
9:00pm 4.5ft 9s 9 13 mph 1021.9mb 51f 49f
8:00pm 4.5ft 9s 11 13 mph 1021.4mb 51f 49f
7:00pm 4.5ft 11s 13 16 mph 1021.1mb 51f 49f
6:00pm 4.5ft 8s 4 7 mph 1020.9mb 51f 49f
5:00pm 4.5ft 9s 13 18 mph 1020.8mb 51f 49f
4:00pm 5ft 10s 13 16 mph 1020.5mb 51f 49f
3:00pm 5ft 10s 13 18 mph 1020.1mb 51f 49f
2:00pm 5ft 11s 13 16 mph 1019.9mb 51f 50f
1:00pm 5ft 10s 13 16 mph 1019.7mb 51f 49f
12:00pm 5ft 11s 9 11 mph 1019.6mb 51f 49f
11:00am 5ft 10s 9 11 mph 1019.3mb 51f 48f
10:00am 5.5ft 10s 9 11 mph 1018.9mb 51f 48f
9:00am 6ft 10s 9 11 mph 1018.5mb 51f 48f
8:00am 6ft 11s 9 11 mph 1018.3mb 51f 48f
7:00am 6ft 11s 11 13 mph 1017.9mb 51f 48f
6:00am 6ft 11s 13
mph
1017.7mb 51f 48f
5:00am 6.5ft 12s 16 18 mph 1017.1mb 51f 49f
4:00am 6.5ft 12s 16 20 mph 1016.8mb 51f 49f
3:00am 6ft 11s 16 20 mph 1016.9mb 51f 49f
2:00am 6.5ft 12s 16 18 mph 1016.3mb 51f 49f
1:00am 7ft 12s 11 13 mph 1015.9mb 51f 50f
12:00am 7ft 12s 11 13 mph 1015.6mb 51f 50f
Mon 05/02 11:00pm 7ft 11s 13 16 mph 1015mb 51f 50f
10:00pm 7ft 13s 13 18 mph 1014.4mb 51f 50f
9:00pm 7.5ft 14s 16 18 mph 1013.5mb 51f 50f
8:00pm 7ft 11s 18 20 mph 1013.4mb 51f 51f
7:00pm 6ft 13s 16 18 mph 1013.3mb 51f 50f
6:00pm 7ft 10s 16 18 mph 1013.6mb 51f 50f
5:00pm 7ft 11s 13 16 mph 1014.2mb 51f 51f
4:00pm 8ft 14s 11 13 mph 1014.6mb 51f 51f
3:00pm 6.5ft 12s 13 16 mph 1014.6mb 51f 52f
2:00pm 7ft 12s 11 13 mph 1014.8mb 52f 52f
1:00pm 7.5ft 11s 9 11 mph 1014.9mb 53f 51f
12:00pm 7ft 13s 11 13 mph 1015mb 53f 51f
11:00am 8ft 13s 9 11 mph 1014.9mb 52f 51f
10:00am 7.5ft 11s 7 9 mph 1014.9mb 52f 51f
9:00am 8ft 14s 4 7 mph 1014.8mb 52f 51f
8:00am 8ft 14s 2
mph
1014.4mb 51f 52f
7:00am 8ft 14s 2 4 mph 1014.1mb 51f 52f
6:00am 8ft 14s 4 7 mph 1013.9mb 51f 51f
5:00am 8ft 12s 4 7 mph 1014mb 51f 51f
4:00am 8ft 14s 7
mph
1013.8mb 51f 51f
3:00am 8ft 12s 7 9 mph 1013.9mb 51f 52f
2:00am 9ft 13s 7 9 mph 1014mb 51f 51f
1:00am 9.5ft 14s 7 9 mph 1013.8mb 52f 51f
12:00am 9ft 14s 7 9 mph 1013.7mb 52f 50f
Sun 05/01 11:00pm 9ft 14s 2 4 mph 1013.6mb 52f 50f
10:00pm 7.5ft 14s 4 7 mph 1013.9mb 53f 51f
9:00pm 7ft 11s 4 7 mph 1013.6mb 53f 53f
8:00pm 7ft 10s 2 4 mph 1013.5mb 53f 53f